Time;durP1;ratioP1;P1;durP2;ratioP2;P2;SDS_P1;SDS_P2;PMS_P1;PMS_P2;Temp;Humidity;BMP_temperature;BMP_pressure;BME280_temperature;BME280_humidity;BME280_pressure;Samples;Min_cycle;Max_cycle;Signal;HPM_P1;HPM_P2
2022/11/23 00:02:12;;;;;;;;;;;22.80;91.90;;;;;;5113587;28;19908;-67
2022/11/23 00:04:39;;;;;;;;;;;22.80;91.70;;;;;;5116477;28;20288;-66
2022/11/23 00:07:05;;;;;;;;;;;22.80;91.60;;;;;;5117127;28;19912;-68
2022/11/23 00:09:32;;;;;;;;;;;22.90;91.30;;;;;;5117479;28;19912;-64
2022/11/23 00:11:59;;;;;;;;;;;22.70;90.90;;;;;;5110538;28;20373;-65
2022/11/23 00:14:25;;;;;;;;;;;22.70;91.20;;;;;;5117294;28;19908;-65
2022/11/23 00:16:52;;;;;;;;;;;22.70;91.10;;;;;;5116987;28;19912;-68
2022/11/23 00:19:19;;;;;;;;;;;22.70;91.20;;;;;;5116570;28;19920;-66
2022/11/23 00:21:45;;;;;;;;;;;22.70;91.00;;;;;;5117049;28;20314;-63
2022/11/23 00:24:12;;;;;;;;;;;22.70;91.60;;;;;;5116946;28;19907;-68
2022/11/23 00:26:39;;;;;;;;;;;22.90;91.30;;;;;;5115522;28;19920;-66
2022/11/23 00:29:06;;;;;;;;;;;23.10;91.00;;;;;;5116668;28;19908;-63
2022/11/23 00:31:32;;;;;;;;;;;23.10;91.00;;;;;;5112342;28;19912;-68
2022/11/23 00:33:59;;;;;;;;;;;23.10;90.50;;;;;;5116337;28;19956;-68
2022/11/23 00:36:26;;;;;;;;;;;23.00;91.40;;;;;;5116797;28;19915;-68
2022/11/23 00:38:53;;;;;;;;;;;23.40;91.10;;;;;;5116320;28;19938;-69
2022/11/23 00:41:21;;;;;;;;;;;23.60;91.00;;;;;;5116138;28;19915;-65
2022/11/23 00:43:48;;;;;;;;;;;23.70;90.80;;;;;;5116737;28;19908;-66
2022/11/23 00:46:25;;;;;;;;;;;23.90;90.30;;;;;;5113854;28;20388;-63
2022/11/23 00:48:52;;;;;;;;;;;23.90;90.60;;;;;;5116359;28;20036;-67
2022/11/23 00:51:20;;;;;;;;;;;24.60;89.60;;;;;;5116418;28;19911;-65
2022/11/23 00:53:49;;;;;;;;;;;24.60;89.60;;;;;;5116347;28;19908;-65
2022/11/23 00:56:15;;;;;;;;;;;25.00;89.10;;;;;;5116190;28;20341;-69
2022/11/23 00:58:42;;;;;;;;;;;25.40;87.80;;;;;;5116265;28;19980;-67
2022/11/23 01:01:09;;;;;;;;;;;25.20;87.70;;;;;;5114349;28;19923;-67
2022/11/23 01:03:37;;;;;;;;;;;25.40;86.30;;;;;;5116080;28;20243;-65
2022/11/23 01:06:05;;;;;;;;;;;25.50;86.30;;;;;;5116234;28;19930;-66
2022/11/23 01:08:32;;;;;;;;;;;25.80;87.10;;;;;;5116219;28;20002;-65
2022/11/23 01:11:02;;;;;;;;;;;25.70;86.20;;;;;;5115589;28;20464;-62
2022/11/23 01:13:29;;;;;;;;;;;25.60;86.50;;;;;;5116023;28;19912;-66
2022/11/23 01:15:56;;;;;;;;;;;25.80;85.80;;;;;;5113660;28;19918;-64
2022/11/23 01:18:23;;;;;;;;;;;26.10;85.40;;;;;;5114557;28;20367;-62
2022/11/23 01:20:50;;;;;;;;;;;26.10;85.60;;;;;;5115603;28;19915;-63
2022/11/23 01:23:17;;;;;;;;;;;26.30;85.60;;;;;;5115889;28;19914;-67
2022/11/23 01:25:44;;;;;;;;;;;26.10;84.70;;;;;;5115655;28;20312;-66
2022/11/23 01:28:10;;;;;;;;;;;26.20;85.60;;;;;;5115775;28;19998;-61
2022/11/23 01:30:37;;;;;;;;;;;26.30;83.80;;;;;;5113626;28;19912;-66
2022/11/23 01:33:04;;;;;;;;;;;26.10;84.20;;;;;;5115440;28;19914;-65
2022/11/23 01:35:31;;;;;;;;;;;26.10;83.60;;;;;;5115645;28;20350;-68
2022/11/23 01:37:57;;;;;;;;;;;26.00;84.00;;;;;;5115580;28;20391;-66
2022/11/23 01:40:24;;;;;;;;;;;25.60;85.80;;;;;;5115519;28;19998;-66
2022/11/23 01:42:58;;;;;;;;;;;25.30;86.10;;;;;;5115325;28;19947;-66
2022/11/23 01:45:45;;;;;;;;;;;25.00;85.80;;;;;;5113708;28;20362;-61
2022/11/23 01:48:19;;;;;;;;;;;25.00;86.00;;;;;;5104557;28;19914;-67
2022/11/23 01:50:48;;;;;;;;;;;24.80;85.80;;;;;;5115100;28;19908;-64
2022/11/23 01:53:15;;;;;;;;;;;24.70;86.30;;;;;;5115351;28;19908;-65
2022/11/23 01:55:42;;;;;;;;;;;24.80;86.60;;;;;;5114795;28;19915;-66
2022/11/23 01:58:09;;;;;;;;;;;24.90;86.10;;;;;;5115099;28;19922;-68
2022/11/23 02:00:36;;;;;;;;;;;24.90;86.10;;;;;;5111757;28;19965;-65
2022/11/23 02:03:04;;;;;;;;;;;24.80;86.40;;;;;;5114942;28;19930;-65
2022/11/23 02:05:33;;;;;;;;;;;24.70;86.90;;;;;;5115310;28;19907;-65
2022/11/23 02:08:00;;;;;;;;;;;24.80;86.10;;;;;;5114998;28;20004;-66
2022/11/23 02:10:28;;;;;;;;;;;24.90;86.20;;;;;;5114698;28;19994;-62
2022/11/23 02:12:55;;;;;;;;;;;24.80;85.10;;;;;;5113683;28;19908;-64
2022/11/23 02:15:22;;;;;;;;;;;24.70;85.90;;;;;;5080615;28;19912;-64
2022/11/23 02:17:48;;;;;;;;;;;25.00;86.00;;;;;;5114936;28;19912;-66
2022/11/23 02:20:17;;;;;;;;;;;24.90;86.50;;;;;;5114834;28;20385;-67
2022/11/23 02:22:50;;;;;;;;;;;24.80;86.10;;;;;;5114638;28;20373;-65
2022/11/23 02:25:39;;;;;;;;;;;24.90;85.90;;;;;;5114626;28;20339;-65
2022/11/23 02:28:06;;;;;;;;;;;24.80;85.20;;;;;;5112992;28;19911;-65
2022/11/23 02:30:34;;;;;;;;;;;24.90;85.60;;;;;;5114721;28;19908;-63
2022/11/23 02:33:04;;;;;;;;;;;24.70;86.00;;;;;;5114370;28;19953;-61
2022/11/23 02:35:30;;;;;;;;;;;24.60;84.90;;;;;;5114512;28;19908;-63
2022/11/23 02:37:58;;;;;;;;;;;24.50;86.20;;;;;;5114445;28;19915;-61
2022/11/23 02:40:25;;;;;;;;;;;24.50;86.30;;;;;;5114299;28;19915;-61
2022/11/23 02:42:52;;;;;;;;;;;24.80;85.80;;;;;;5112800;28;20002;-60
2022/11/23 02:45:23;;;;;;;;;;;24.90;86.10;;;;;;5114461;28;19915;-62
2022/11/23 02:47:50;;;;;;;;;;;25.10;86.70;;;;;;5113234;28;19919;-60
2022/11/23 02:50:17;;;;;;;;;;;25.30;85.00;;;;;;5114259;28;19935;-62
2022/11/23 02:52:43;;;;;;;;;;;25.10;84.80;;;;;;5114238;28;19990;-61
2022/11/23 02:55:10;;;;;;;;;;;25.20;84.80;;;;;;5113726;28;19998;-60
2022/11/23 02:57:37;;;;;;;;;;;25.30;84.30;;;;;;5111630;28;19916;-61
2022/11/23 03:00:04;;;;;;;;;;;25.20;85.00;;;;;;5114059;28;20354;-61
2022/11/23 03:02:31;;;;;;;;;;;25.20;84.00;;;;;;5114088;28;19908;-61
2022/11/23 03:04:57;;;;;;;;;;;25.20;84.70;;;;;;5113805;28;19908;-61
2022/11/23 03:07:24;;;;;;;;;;;25.30;84.70;;;;;;5113824;28;20368;-60
2022/11/23 03:09:51;;;;;;;;;;;25.40;84.10;;;;;;5113899;28;19908;-60
2022/11/23 03:12:17;;;;;;;;;;;25.20;84.50;;;;;;5112027;28;19919;-61
2022/11/23 03:14:44;;;;;;;;;;;25.50;85.00;;;;;;5113902;28;19961;-61
2022/11/23 03:17:11;;;;;;;;;;;25.60;84.00;;;;;;5112591;28;19912;-65
2022/11/23 03:19:37;;;;;;;;;;;25.40;84.10;;;;;;5113610;28;19916;-62
2022/11/23 03:22:04;;;;;;;;;;;25.50;84.40;;;;;;5113735;28;19908;-61
2022/11/23 03:24:31;;;;;;;;;;;25.40;84.60;;;;;;5113851;28;19908;-61
2022/11/23 03:26:58;;;;;;;;;;;25.70;84.30;;;;;;5111957;28;19920;-61
2022/11/23 03:29:25;;;;;;;;;;;25.90;84.20;;;;;;5113773;28;19908;-61
2022/11/23 03:31:52;;;;;;;;;;;25.80;83.70;;;;;;5113636;28;20007;-61
2022/11/23 03:34:19;;;;;;;;;;;25.60;83.60;;;;;;5113634;28;19961;-62
2022/11/23 03:36:46;;;;;;;;;;;25.60;84.80;;;;;;5113450;28;19915;-61
2022/11/23 03:39:12;;;;;;;;;;;25.80;83.10;;;;;;5116436;28;19935;-61
2022/11/23 03:41:39;;;;;;;;;;;25.70;84.30;;;;;;5116697;28;19951;-62
2022/11/23 03:44:06;;;;;;;;;;;25.90;83.50;;;;;;5117813;28;19953;-61
2022/11/23 03:46:32;;;;;;;;;;;25.80;83.50;;;;;;5117786;28;20001;-62
2022/11/23 03:48:59;;;;;;;;;;;25.80;83.50;;;;;;5117537;28;19911;-61
2022/11/23 03:51:26;;;;;;;;;;;26.10;82.80;;;;;;5117784;28;20365;-63
2022/11/23 03:53:53;;;;;;;;;;;25.80;82.20;;;;;;5117516;28;19915;-61
2022/11/23 03:56:20;;;;;;;;;;;25.90;83.80;;;;;;5115255;28;19919;-62
2022/11/23 03:58:46;;;;;;;;;;;26.10;82.50;;;;;;5117406;28;19919;-63
2022/11/23 04:01:14;;;;;;;;;;;26.30;82.60;;;;;;5117483;28;19918;-61
2022/11/23 04:03:41;;;;;;;;;;;26.20;82.00;;;;;;5117378;28;20273;-61
2022/11/23 04:06:08;;;;;;;;;;;26.30;81.90;;;;;;5117421;28;19986;-61
2022/11/23 04:08:35;;;;;;;;;;;26.20;83.30;;;;;;5099071;28;20313;-61
2022/11/23 04:11:01;;;;;;;;;;;25.90;83.20;;;;;;5115772;28;19908;-61
2022/11/23 04:13:28;;;;;;;;;;;25.70;83.00;;;;;;5117248;28;19965;-64
2022/11/23 04:15:55;;;;;;;;;;;25.90;83.30;;;;;;5117106;28;19915;-62
2022/11/23 04:18:22;;;;;;;;;;;25.80;83.80;;;;;;5117001;28;19912;-62
2022/11/23 04:20:48;;;;;;;;;;;25.60;84.50;;;;;;5116798;28;19919;-61
2022/11/23 04:23:15;;;;;;;;;;;25.80;83.00;;;;;;5117138;28;19915;-61
2022/11/23 04:25:42;;;;;;;;;;;26.00;82.60;;;;;;5115096;28;19915;-61
2022/11/23 04:28:09;;;;;;;;;;;25.70;82.70;;;;;;5084309;28;19934;-61
2022/11/23 04:30:39;;;;;;;;;;;25.70;83.70;;;;;;5115535;28;19912;-62
2022/11/23 04:33:06;;;;;;;;;;;26.00;82.50;;;;;;5115277;28;19998;-61
2022/11/23 04:35:33;;;;;;;;;;;26.10;82.10;;;;;;5117086;28;20004;-61
2022/11/23 04:38:00;;;;;;;;;;;26.00;83.50;;;;;;5116801;28;20231;-62
2022/11/23 04:40:28;;;;;;;;;;;26.30;82.70;;;;;;5098452;28;19912;-62
2022/11/23 04:42:56;;;;;;;;;;;26.10;81.50;;;;;;5116443;28;19912;-62
2022/11/23 04:45:23;;;;;;;;;;;25.90;83.80;;;;;;5116672;28;19914;-61
2022/11/23 04:47:50;;;;;;;;;;;25.90;83.20;;;;;;5114631;28;19953;-61
2022/11/23 04:50:16;;;;;;;;;;;25.90;81.60;;;;;;5116182;28;19912;-61
2022/11/23 04:52:44;;;;;;;;;;;26.00;82.70;;;;;;5116596;28;20003;-64
2022/11/23 04:55:11;;;;;;;;;;;26.00;81.90;;;;;;5116312;28;20058;-62
2022/11/23 04:57:38;;;;;;;;;;;26.00;82.20;;;;;;5116309;28;20285;-62
2022/11/23 05:00:05;;;;;;;;;;;26.00;83.40;;;;;;5116290;28;20086;-62
2022/11/23 05:02:31;;;;;;;;;;;25.90;82.70;;;;;;5115182;28;20306;-61
2022/11/23 05:04:58;;;;;;;;;;;25.90;81.80;;;;;;5114699;28;20002;-62
2022/11/23 05:07:25;;;;;;;;;;;25.90;82.10;;;;;;5116210;28;19907;-62
2022/11/23 05:09:52;;;;;;;;;;;25.80;82.50;;;;;;5116129;28;19912;-62
2022/11/23 05:12:18;;;;;;;;;;;25.80;81.60;;;;;;5115956;28;20070;-61
2022/11/23 05:14:45;;;;;;;;;;;25.90;82.80;;;;;;5115868;28;19907;-61
2022/11/23 05:17:12;;;;;;;;;;;26.10;81.80;;;;;;5113569;28;19962;-63
2022/11/23 05:19:39;;;;;;;;;;;26.10;81.70;;;;;;5115727;28;20395;-61
2022/11/23 05:22:05;;;;;;;;;;;26.00;81.20;;;;;;5116130;28;19933;-61
2022/11/23 05:24:32;;;;;;;;;;;26.10;82.70;;;;;;5115773;28;19908;-62
2022/11/23 05:26:59;;;;;;;;;;;25.90;82.10;;;;;;5115756;28;19993;-61
2022/11/23 05:29:25;;;;;;;;;;;25.90;82.10;;;;;;5115841;28;20276;-62
2022/11/23 05:31:53;;;;;;;;;;;25.80;85.40;;;;;;5114121;28;19916;-62
2022/11/23 05:34:20;;;;;;;;;;;25.50;88.70;;;;;;5099051;28;19931;-62
2022/11/23 05:36:46;;;;;;;;;;;25.60;88.90;;;;;;5074818;28;19908;-61
2022/11/23 05:39:13;;;;;;;;;;;25.50;86.50;;;;;;5074795;28;19966;-61
2022/11/23 05:41:40;;;;;;;;;;;25.20;88.80;;;;;;5074839;28;19978;-63
2022/11/23 05:44:07;;;;;;;;;;;24.80;89.10;;;;;;5075080;28;19930;-62
2022/11/23 05:46:33;;;;;;;;;;;24.60;90.50;;;;;;5089698;28;20058;-61
2022/11/23 05:49:00;;;;;;;;;;;24.40;91.10;;;;;;5114787;28;19926;-62
2022/11/23 05:51:27;;;;;;;;;;;24.20;91.10;;;;;;5113570;28;19915;-66
2022/11/23 05:53:55;;;;;;;;;;;24.00;91.60;;;;;;5113150;28;19908;-61
2022/11/23 05:56:22;;;;;;;;;;;24.00;91.30;;;;;;5112907;28;19920;-61
2022/11/23 05:58:49;;;;;;;;;;;23.90;91.10;;;;;;5112950;28;19920;-61
2022/11/23 06:01:16;;;;;;;;;;;23.70;91.20;;;;;;5084271;28;19963;-61
2022/11/23 06:03:42;;;;;;;;;;;23.60;91.40;;;;;;5092066;28;19916;-62
2022/11/23 06:06:10;;;;;;;;;;;23.50;91.00;;;;;;5092507;28;19912;-62
2022/11/23 06:08:36;;;;;;;;;;;23.30;91.00;;;;;;5092446;28;19951;-61
2022/11/23 06:11:03;;;;;;;;;;;23.20;90.70;;;;;;5092207;28;20037;-62
2022/11/23 06:13:30;;;;;;;;;;;23.10;91.30;;;;;;5092329;28;19908;-61
2022/11/23 06:15:57;;;;;;;;;;;23.10;91.80;;;;;;5099141;28;19919;-65
2022/11/23 06:18:24;;;;;;;;;;;23.00;92.30;;;;;;5111590;28;19915;-62
2022/11/23 06:20:50;;;;;;;;;;;23.00;92.90;;;;;;5112349;28;19914;-61
2022/11/23 06:23:17;;;;;;;;;;;23.00;93.00;;;;;;5112346;28;19908;-61
2022/11/23 06:25:44;;;;;;;;;;;22.90;93.40;;;;;;5112494;28;20477;-61
2022/11/23 06:28:14;;;;;;;;;;;22.80;93.80;;;;;;5112591;28;19911;-61
2022/11/23 06:30:40;;;;;;;;;;;22.80;93.80;;;;;;5110915;28;20450;-63
2022/11/23 06:33:07;;;;;;;;;;;22.70;94.10;;;;;;5110124;28;19926;-61
2022/11/23 06:35:34;;;;;;;;;;;22.70;94.10;;;;;;5112239;28;19912;-61
2022/11/23 06:38:01;;;;;;;;;;;22.70;94.30;;;;;;5112162;28;19915;-62
2022/11/23 06:40:27;;;;;;;;;;;22.70;94.10;;;;;;5112141;28;19937;-61
2022/11/23 06:43:00;;;;;;;;;;;22.70;94.90;;;;;;5111667;28;20324;-64
2022/11/23 06:45:27;;;;;;;;;;;22.70;94.90;;;;;;5110000;28;19923;-62
2022/11/23 06:47:55;;;;;;;;;;;22.80;95.60;;;;;;5111615;28;19960;-63
2022/11/23 06:50:22;;;;;;;;;;;22.80;95.30;;;;;;5111836;28;19908;-62
2022/11/23 06:52:53;;;;;;;;;;;22.70;95.50;;;;;;5111093;28;19912;-62
2022/11/23 06:55:20;;;;;;;;;;;22.60;95.50;;;;;;5105187;28;19923;-62
2022/11/23 06:57:47;;;;;;;;;;;22.60;95.60;;;;;;5104824;28;19911;-64
2022/11/23 07:00:14;;;;;;;;;;;22.50;95.70;;;;;;5103545;28;19924;-62
2022/11/23 07:02:40;;;;;;;;;;;22.50;95.80;;;;;;5104006;28;19916;-64
2022/11/23 07:05:07;;;;;;;;;;;22.40;96.10;;;;;;5105173;28;19916;-62
2022/11/23 07:07:34;;;;;;;;;;;22.30;96.40;;;;;;5105198;28;19912;-62
2022/11/23 07:10:01;;;;;;;;;;;22.30;96.70;;;;;;5104678;28;19911;-62
2022/11/23 07:12:27;;;;;;;;;;;22.30;97.10;;;;;;5104426;28;19918;-62
2022/11/23 07:14:54;;;;;;;;;;;22.30;96.80;;;;;;5103163;28;20396;-62
2022/11/23 07:17:21;;;;;;;;;;;22.20;96.90;;;;;;5104813;28;20294;-62
2022/11/23 07:19:47;;;;;;;;;;;22.20;97.00;;;;;;5105008;28;19970;-64
2022/11/23 07:22:14;;;;;;;;;;;22.20;96.70;;;;;;5105057;28;19988;-73
2022/11/23 07:24:42;;;;;;;;;;;22.20;97.00;;;;;;5104932;28;20354;-63
2022/11/23 07:27:09;;;;;;;;;;;22.20;97.70;;;;;;5104037;28;20018;-63
2022/11/23 07:29:35;;;;;;;;;;;22.10;99.40;;;;;;5103678;28;20424;-62
2022/11/23 07:32:02;;;;;;;;;;;22.00;99.90;;;;;;5103824;28;19920;-59
2022/11/23 07:34:29;;;;;;;;;;;21.90;99.90;;;;;;5104884;28;19915;-60
2022/11/23 07:36:55;;;;;;;;;;;21.90;99.90;;;;;;5104400;28;20325;-61
2022/11/23 07:39:23;;;;;;;;;;;21.70;99.90;;;;;;5104759;28;19987;-59
2022/11/23 07:41:49;;;;;;;;;;;21.70;99.00;;;;;;5104541;28;19916;-59
2022/11/23 07:44:16;;;;;;;;;;;21.70;98.80;;;;;;5100561;28;20549;-61
2022/11/23 07:46:43;;;;;;;;;;;21.70;98.80;;;;;;5104770;28;19912;-59
2022/11/23 07:49:09;;;;;;;;;;;21.70;99.20;;;;;;5104327;28;19923;-61
2022/11/23 07:51:36;;;;;;;;;;;21.70;99.90;;;;;;5104805;28;19911;-60
2022/11/23 07:54:03;;;;;;;;;;;21.60;99.50;;;;;;5104587;28;19933;-59
2022/11/23 07:56:30;;;;;;;;;;;21.60;99.50;;;;;;5104645;28;19997;-59
2022/11/23 07:58:56;;;;;;;;;;;21.50;99.70;;;;;;5103000;28;20050;-61
2022/11/23 08:01:23;;;;;;;;;;;21.40;99.40;;;;;;5100247;28;19918;-62
2022/11/23 08:03:50;;;;;;;;;;;21.40;99.20;;;;;;5071318;28;19916;-60
2022/11/23 08:06:16;;;;;;;;;;;21.40;98.60;;;;;;5083770;28;19912;-59
2022/11/23 08:08:43;;;;;;;;;;;21.50;99.90;;;;;;5065747;28;20589;-67
2022/11/23 08:11:13;;;;;;;;;;;21.50;99.90;;;;;;5084121;28;20003;-64
2022/11/23 08:13:41;;;;;;;;;;;21.40;99.30;;;;;;5066295;28;19912;-65
2022/11/23 08:16:08;;;;;;;;;;;21.40;99.90;;;;;;5102925;28;19916;-63
2022/11/23 08:18:35;;;;;;;;;;;21.40;99.90;;;;;;5104275;28;19959;-59
2022/11/23 08:21:01;;;;;;;;;;;21.40;99.70;;;;;;5102929;28;19916;-60
2022/11/23 08:23:28;;;;;;;;;;;21.40;98.50;;;;;;5104245;28;19912;-65
2022/11/23 08:25:55;;;;;;;;;;;21.40;99.80;;;;;;5102216;28;19922;-62
2022/11/23 08:28:22;;;;;;;;;;;21.30;98.40;;;;;;5108053;28;19922;-60
2022/11/23 08:30:49;;;;;;;;;;;21.30;98.40;;;;;;5106469;28;19922;-68
2022/11/23 08:33:15;;;;;;;;;;;21.30;98.60;;;;;;5096634;28;20029;-64
2022/11/23 08:35:42;;;;;;;;;;;21.20;98.40;;;;;;5099842;28;19923;-67
2022/11/23 08:38:10;;;;;;;;;;;21.20;99.20;;;;;;5107599;28;19916;-66
2022/11/23 08:40:37;;;;;;;;;;;21.10;99.50;;;;;;5106249;28;19966;-67
2022/11/23 08:43:05;;;;;;;;;;;21.10;99.00;;;;;;5107730;28;19934;-68
2022/11/23 08:45:32;;;;;;;;;;;21.00;99.40;;;;;;5106434;28;19947;-65
2022/11/23 08:48:00;;;;;;;;;;;21.00;99.30;;;;;;5103014;28;19923;-68
2022/11/23 08:50:28;;;;;;;;;;;21.00;99.90;;;;;;5107548;28;19919;-69
2022/11/23 08:52:58;;;;;;;;;;;21.00;99.90;;;;;;5106211;28;19922;-68
2022/11/23 08:55:25;;;;;;;;;;;20.90;99.90;;;;;;5107105;28;19926;-65
2022/11/23 08:57:58;;;;;;;;;;;20.90;99.90;;;;;;5105313;28;19959;-68
2022/11/23 09:00:25;;;;;;;;;;;20.80;99.60;;;;;;5107874;28;19919;-68
2022/11/23 09:02:52;;;;;;;;;;;20.80;99.40;;;;;;5100454;28;20615;-67
2022/11/23 09:05:19;;;;;;;;;;;20.80;99.20;;;;;;5107300;28;19915;-68
2022/11/23 09:07:46;;;;;;;;;;;20.80;99.20;;;;;;5105474;28;19969;-68
2022/11/23 09:10:12;;;;;;;;;;;20.80;99.00;;;;;;5107339;28;20388;-66
2022/11/23 09:12:39;;;;;;;;;;;20.70;99.90;;;;;;5105784;28;20453;-69
2022/11/23 09:15:06;;;;;;;;;;;20.70;99.10;;;;;;5102367;28;19916;-66
2022/11/23 09:17:33;;;;;;;;;;;20.70;98.80;;;;;;5107028;28;19919;-65
2022/11/23 09:20:00;;;;;;;;;;;20.70;98.60;;;;;;5101416;28;20026;-61
2022/11/23 09:22:26;;;;;;;;;;;20.70;99.60;;;;;;5106929;28;19911;-63
2022/11/23 09:24:53;;;;;;;;;;;20.70;99.70;;;;;;5105802;28;20568;-65
2022/11/23 09:27:20;;;;;;;;;;;20.70;99.80;;;;;;5107017;28;19911;-64
2022/11/23 09:29:47;;;;;;;;;;;20.70;99.90;;;;;;5102842;28;20444;-61
2022/11/23 09:32:13;;;;;;;;;;;20.70;99.90;;;;;;5105649;28;19954;-62
2022/11/23 09:34:40;;;;;;;;;;;20.60;99.90;;;;;;5105580;28;20655;-64
2022/11/23 09:37:07;;;;;;;;;;;20.60;99.90;;;;;;5105401;28;19919;-60
2022/11/23 09:39:33;;;;;;;;;;;20.60;99.90;;;;;;5105428;28;19924;-61
2022/11/23 09:42:09;;;;;;;;;;;20.60;99.50;;;;;;5106679;28;20522;-62
2022/11/23 09:44:36;;;;;;;;;;;20.60;99.90;;;;;;5099629;28;20425;-61
2022/11/23 09:47:02;;;;;;;;;;;20.60;99.90;;;;;;5106082;28;20712;-62
2022/11/23 09:49:38;;;;;;;;;;;20.50;99.60;;;;;;5105439;28;19926;-62
2022/11/23 09:52:13;;;;;;;;;;;20.50;99.20;;;;;;5105134;28;19912;-61
2022/11/23 09:54:41;;;;;;;;;;;20.50;98.90;;;;;;5106309;28;20282;-66
2022/11/23 09:57:09;;;;;;;;;;;20.50;99.70;;;;;;5104614;28;19999;-62
2022/11/23 09:59:41;;;;;;;;;;;20.50;99.70;;;;;;5102062;28;20025;-64
2022/11/23 10:02:27;;;;;;;;;;;20.50;99.30;;;;;;5106413;28;20627;-62
2022/11/23 10:04:55;;;;;;;;;;;20.50;99.90;;;;;;5105878;28;20348;-63
2022/11/23 10:07:28;;;;;;;;;;;20.40;99.50;;;;;;5104917;28;20030;-65
2022/11/23 10:10:30;;;;;;;;;;;20.40;99.00;;;;;;5106207;28;20029;-66
2022/11/23 10:12:57;;;;;;;;;;;20.40;99.90;;;;;;5036427;28;20004;-66
2022/11/23 10:15:27;;;;;;;;;;;20.40;99.70;;;;;;5092246;28;19916;-68
2022/11/23 10:18:20;;;;;;;;;;;20.40;99.50;;;;;;5105937;28;19916;-69
2022/11/23 10:20:46;;;;;;;;;;;20.50;99.90;;;;;;5081083;28;20642;-63
2022/11/23 10:23:21;;;;;;;;;;;20.40;99.00;;;;;;5105996;28;20381;-66
2022/11/23 10:25:49;;;;;;;;;;;20.30;98.80;;;;;;5093451;28;19915;-67
2022/11/23 10:28:17;;;;;;;;;;;20.30;98.80;;;;;;5105907;28;19912;-68
2022/11/23 10:30:50;;;;;;;;;;;20.30;99.90;;;;;;5105727;28;20282;-68
2022/11/23 10:33:22;;;;;;;;;;;20.30;99.70;;;;;;5105924;28;20010;-67
2022/11/23 10:35:49;;;;;;;;;;;20.30;99.20;;;;;;5106229;28;19912;-64
2022/11/23 10:38:19;;;;;;;;;;;20.30;98.90;;;;;;5103957;28;19911;-67
2022/11/23 10:40:59;;;;;;;;;;;20.30;99.10;;;;;;5104363;28;19927;-67
2022/11/23 10:43:28;;;;;;;;;;;20.30;99.90;;;;;;5105562;28;19918;-66
2022/11/23 10:46:12;;;;;;;;;;;20.30;99.90;;;;;;5105524;28;19918;-67
2022/11/23 10:48:39;;;;;;;;;;;20.40;99.10;;;;;;5105477;28;20354;-65
2022/11/23 10:51:22;;;;;;;;;;;20.50;99.50;;;;;;5103557;28;20003;-61
2022/11/23 10:53:59;;;;;;;;;;;20.50;99.90;;;;;;5103266;28;19911;-68
2022/11/23 10:56:26;;;;;;;;;;;20.50;99.80;;;;;;5105334;28;20100;-68
2022/11/23 10:58:53;;;;;;;;;;;20.50;99.50;;;;;;5105362;28;20019;-62
2022/11/23 11:01:28;;;;;;;;;;;20.50;99.40;;;;;;5105234;28;19911;-67
2022/11/23 11:03:56;;;;;;;;;;;20.50;99.70;;;;;;5105336;28;19947;-64
2022/11/23 11:06:27;;;;;;;;;;;20.50;99.40;;;;;;5104942;28;20550;-68
2022/11/23 11:08:55;;;;;;;;;;;20.50;99.30;;;;;;5103171;28;19920;-65
2022/11/23 11:11:44;;;;;;;;;;;20.40;98.80;;;;;;5104100;28;19915;-60
2022/11/23 11:14:11;;;;;;;;;;;20.40;99.00;;;;;;5105155;28;19937;-63
2022/11/23 11:16:46;;;;;;;;;;;20.30;98.90;;;;;;5105352;28;19972;-64
2022/11/23 11:19:32;;;;;;;;;;;20.30;99.80;;;;;;5107406;28;19915;-67
2022/11/23 11:22:00;;;;;;;;;;;20.30;99.10;;;;;;5113698;28;19908;-63
2022/11/23 11:24:35;;;;;;;;;;;20.30;99.60;;;;;;5111706;28;19912;-64
2022/11/23 11:27:03;;;;;;;;;;;20.30;99.30;;;;;;5113595;28;19908;-67
2022/11/23 11:29:47;;;;;;;;;;;20.30;99.40;;;;;;5113759;28;19908;-67
2022/11/23 11:32:13;;;;;;;;;;;20.30;99.20;;;;;;5113653;28;19908;-67
2022/11/23 11:34:48;;;;;;;;;;;20.30;99.30;;;;;;5113335;28;20354;-69
2022/11/23 11:37:33;;;;;;;;;;;20.30;99.40;;;;;;5111428;28;19908;-68
2022/11/23 11:40:17;;;;;;;;;;;20.30;99.50;;;;;;5112367;28;19923;-66
2022/11/23 11:42:48;;;;;;;;;;;20.30;99.20;;;;;;5113567;28;19908;-61
2022/11/23 11:45:44;;;;;;;;;;;20.30;99.40;;;;;;5113602;28;19994;-62
2022/11/23 11:48:17;;;;;;;;;;;20.30;99.30;;;;;;5100456;28;20312;-61
2022/11/23 11:50:52;;;;;;;;;;;20.30;99.40;;;;;;5113738;28;20367;-67
2022/11/23 11:53:22;;;;;;;;;;;20.30;99.30;;;;;;5108934;28;19911;-67
2022/11/23 11:55:51;;;;;;;;;;;20.30;99.90;;;;;;5113519;28;19919;-62
2022/11/23 11:58:19;;;;;;;;;;;20.30;99.70;;;;;;5113420;28;19908;-64
2022/11/23 12:00:47;;;;;;;;;;;20.30;99.80;;;;;;5111816;28;19916;-58
2022/11/23 12:03:19;;;;;;;;;;;20.30;99.80;;;;;;5117496;28;19914;-61
2022/11/23 12:05:51;;;;;;;;;;;20.30;99.90;;;;;;5117560;28;19908;-67
2022/11/23 12:08:18;;;;;;;;;;;20.30;99.90;;;;;;5117441;28;19915;-60
2022/11/23 12:10:44;;;;;;;;;;;20.30;99.90;;;;;;5117508;28;20366;-64
2022/11/23 12:13:25;;;;;;;;;;;20.30;99.90;;;;;;5116477;28;20386;-66
2022/11/23 12:15:55;;;;;;;;;;;20.20;99.90;;;;;;5076760;28;19909;-65
2022/11/23 12:18:33;;;;;;;;;;;20.20;99.90;;;;;;5076475;28;20352;-64
2022/11/23 12:21:17;;;;;;;;;;;20.20;99.90;;;;;;5076287;28;19923;-62
2022/11/23 12:23:52;;;;;;;;;;;20.20;99.90;;;;;;5076671;28;19971;-62
2022/11/23 12:26:25;;;;;;;;;;;20.10;99.90;;;;;;5076473;28;19958;-60
2022/11/23 12:29:00;;;;;;;;;;;20.10;99.90;;;;;;5090273;28;19912;-60
2022/11/23 12:31:30;;;;;;;;;;;20.10;99.90;;;;;;5117050;28;19915;-63
2022/11/23 12:33:59;;;;;;;;;;;19.90;99.90;;;;;;5116964;28;19907;-59
2022/11/23 12:36:32;;;;;;;;;;;19.90;99.90;;;;;;5116898;28;20378;-63
2022/11/23 12:39:04;;;;;;;;;;;19.80;99.90;;;;;;5116611;28;19999;-62
2022/11/23 12:41:38;;;;;;;;;;;19.80;99.90;;;;;;5116842;28;19914;-63
2022/11/23 12:44:17;;;;;;;;;;;19.80;99.90;;;;;;5115191;28;20365;-65
2022/11/23 12:46:48;;;;;;;;;;;19.80;99.90;;;;;;5115430;28;20381;-62
2022/11/23 12:49:33;;;;;;;;;;;19.70;99.90;;;;;;5116780;28;19908;-64
2022/11/23 12:52:17;;;;;;;;;;;19.80;99.90;;;;;;5116560;28;20045;-62
2022/11/23 12:54:54;;;;;;;;;;;19.80;99.90;;;;;;5116607;28;19914;-64
2022/11/23 12:57:23;;;;;;;;;;;19.80;99.90;;;;;;5116560;28;19920;-63
2022/11/23 12:59:55;;;;;;;;;;;19.80;99.90;;;;;;5109310;28;19927;-62
2022/11/23 13:02:21;;;;;;;;;;;19.70;99.90;;;;;;5116475;28;19907;-58
2022/11/23 13:04:54;;;;;;;;;;;19.70;99.90;;;;;;5111402;28;20258;-64
2022/11/23 13:07:21;;;;;;;;;;;19.70;99.90;;;;;;5116176;28;20277;-65
2022/11/23 13:09:56;;;;;;;;;;;19.60;99.90;;;;;;5116122;28;20366;-60
2022/11/23 13:12:41;;;;;;;;;;;19.70;99.90;;;;;;5115690;28;20266;-64
2022/11/23 13:15:26;;;;;;;;;;;19.60;99.90;;;;;;5116123;28;20059;-64
2022/11/23 13:17:52;;;;;;;;;;;19.60;99.90;;;;;;5116153;28;20287;-67
2022/11/23 13:20:37;;;;;;;;;;;19.60;99.90;;;;;;5112478;28;19927;-61
2022/11/23 13:23:05;;;;;;;;;;;19.70;99.90;;;;;;5115694;28;19956;-65
2022/11/23 13:25:32;;;;;;;;;;;19.70;99.90;;;;;;5116056;28;19912;-65
2022/11/23 13:28:00;;;;;;;;;;;19.60;99.90;;;;;;5116358;28;20333;-66
2022/11/23 13:30:29;;;;;;;;;;;19.60;99.90;;;;;;5115960;28;19908;-60
2022/11/23 13:33:00;;;;;;;;;;;19.60;99.90;;;;;;5115844;28;19953;-59
2022/11/23 13:35:29;;;;;;;;;;;19.50;99.90;;;;;;5114404;28;19908;-68
2022/11/23 13:37:56;;;;;;;;;;;19.60;99.90;;;;;;5115615;28;20289;-69
2022/11/23 13:40:24;;;;;;;;;;;19.50;99.90;;;;;;5115626;28;20390;-63
2022/11/23 13:42:56;;;;;;;;;;;19.50;99.90;;;;;;5115379;28;20271;-59
2022/11/23 13:45:29;;;;;;;;;;;19.50;99.90;;;;;;5115517;28;19908;-61
2022/11/23 13:48:04;;;;;;;;;;;19.40;99.90;;;;;;5115598;28;19931;-62
2022/11/23 13:50:31;;;;;;;;;;;19.40;99.90;;;;;;5112256;28;19985;-64
2022/11/23 13:52:57;;;;;;;;;;;19.30;99.90;;;;;;5115181;28;19947;-60
2022/11/23 13:55:30;;;;;;;;;;;19.30;99.90;;;;;;5115293;28;19956;-59
2022/11/23 13:58:32;;;;;;;;;;;19.30;99.90;;;;;;5115408;28;20385;-60
2022/11/23 14:00:59;;;;;;;;;;;19.30;99.90;;;;;;5052286;28;19917;-62
2022/11/23 14:03:44;;;;;;;;;;;19.30;99.90;;;;;;5101041;28;19912;-59
2022/11/23 14:06:29;;;;;;;;;;;19.30;99.90;;;;;;5115340;28;19915;-58
2022/11/23 14:09:11;;;;;;;;;;;19.20;99.90;;;;;;5115155;28;20259;-58
2022/11/23 14:11:52;;;;;;;;;;;19.20;99.90;;;;;;5115097;28;19999;-58
2022/11/23 14:14:21;;;;;;;;;;;19.10;99.90;;;;;;5115016;28;19931;-58
2022/11/23 14:17:05;;;;;;;;;;;19.10;99.90;;;;;;5114849;28;19915;-58
2022/11/23 14:19:42;;;;;;;;;;;19.10;99.90;;;;;;5113007;28;19926;-59
2022/11/23 14:22:33;;;;;;;;;;;19.00;99.90;;;;;;5114542;28;20439;-59
2022/11/23 14:25:18;;;;;;;;;;;19.00;99.90;;;;;;5114899;28;19939;-58
2022/11/23 14:27:45;;;;;;;;;;;19.00;99.90;;;;;;5114821;28;19908;-59
2022/11/23 14:30:19;;;;;;;;;;;18.90;99.90;;;;;;5114778;28;19914;-60